createdAt,value
2022-09-17T00:01:31.728Z,12.80
2022-09-17T00:04:04.002Z,12.80
2022-09-17T00:06:32.668Z,12.70
2022-09-17T00:08:59.480Z,12.80
2022-09-17T00:11:32.131Z,12.80
2022-09-17T00:14:01.045Z,12.80
2022-09-17T00:16:41.504Z,12.80
2022-09-17T00:19:15.999Z,12.80
2022-09-17T00:21:42.998Z,12.80
2022-09-17T00:24:14.444Z,12.70
2022-09-17T00:26:46.297Z,12.80
2022-09-17T00:29:13.360Z,12.80
2022-09-17T00:31:40.618Z,12.80
2022-09-17T00:34:10.131Z,12.80
2022-09-17T00:36:42.319Z,12.80
2022-09-17T00:39:12.984Z,12.80
2022-09-17T00:41:40.039Z,12.80
2022-09-17T00:44:44.641Z,12.80
2022-09-17T00:47:39.556Z,12.80
2022-09-17T00:50:18.120Z,12.80
2022-09-17T00:52:50.665Z,12.80
2022-09-17T00:55:28.772Z,12.80
2022-09-17T00:57:58.809Z,12.70
2022-09-17T01:00:26.869Z,12.70
2022-09-17T01:02:54.967Z,12.70
2022-09-17T01:05:45.332Z,12.70
2022-09-17T01:08:48.947Z,12.70
2022-09-17T01:11:48.896Z,12.80
2022-09-17T01:14:34.319Z,12.70
2022-09-17T01:17:28.940Z,12.70
2022-09-17T01:20:11.809Z,12.70
2022-09-17T01:22:58.165Z,12.70
2022-09-17T01:25:44.484Z,12.80
2022-09-17T01:28:36.078Z,12.80
2022-09-17T01:31:37.355Z,12.80
2022-09-17T01:34:15.796Z,12.80
2022-09-17T01:37:12.032Z,12.80
2022-09-17T01:40:08.063Z,12.80
2022-09-17T01:43:10.155Z,12.80
2022-09-17T01:45:53.008Z,12.80
2022-09-17T01:48:36.228Z,12.80
2022-09-17T01:51:17.505Z,12.80
2022-09-17T01:54:05.788Z,12.80
2022-09-17T01:56:39.992Z,12.80
2022-09-17T01:59:14.245Z,12.80
2022-09-17T02:01:43.857Z,12.80
2022-09-17T02:04:22.353Z,12.80
2022-09-17T02:06:57.658Z,12.80
2022-09-17T02:09:29.667Z,12.80
2022-09-17T02:12:02.043Z,12.80
2022-09-17T02:14:36.762Z,12.80
2022-09-17T02:17:14.761Z,12.90
2022-09-17T02:19:41.906Z,12.80
2022-09-17T02:22:40.541Z,12.90
2022-09-17T02:25:50.202Z,12.90
2022-09-17T02:28:37.081Z,12.90
2022-09-17T02:31:04.281Z,12.90
2022-09-17T02:33:33.203Z,12.90
2022-09-17T02:35:59.996Z,12.90
2022-09-17T02:38:30.976Z,12.90
2022-09-17T02:41:16.030Z,12.90
2022-09-17T02:44:09.685Z,12.90
2022-09-17T02:47:14.210Z,12.90
2022-09-17T02:49:41.257Z,12.90
2022-09-17T02:52:23.206Z,12.90
2022-09-17T02:55:22.975Z,12.90
2022-09-17T02:58:03.299Z,12.90
2022-09-17T03:00:30.523Z,12.90
2022-09-17T03:03:05.809Z,12.90
2022-09-17T03:05:38.159Z,12.90
2022-09-17T03:08:09.570Z,12.90
2022-09-17T03:10:40.183Z,12.90
2022-09-17T03:13:07.271Z,12.90
2022-09-17T03:15:36.258Z,12.90
2022-09-17T03:18:03.176Z,12.90
2022-09-17T03:20:29.903Z,12.90
2022-09-17T03:22:59.015Z,12.90
2022-09-17T03:25:27.943Z,12.90
2022-09-17T03:27:56.741Z,12.90
2022-09-17T03:30:26.013Z,12.90
2022-09-17T03:32:55.025Z,12.90
2022-09-17T03:35:24.323Z,12.90
2022-09-17T03:37:51.039Z,12.90
2022-09-17T03:40:17.990Z,13.00
2022-09-17T03:42:44.830Z,13.00
2022-09-17T03:45:11.864Z,13.00
2022-09-17T03:47:38.617Z,13.00
2022-09-17T03:50:06.540Z,13.00
2022-09-17T03:52:33.307Z,13.00
2022-09-17T03:55:00.031Z,13.00
2022-09-17T03:57:27.088Z,13.00
2022-09-17T03:59:58.093Z,13.00
2022-09-17T04:02:27.330Z,13.00
2022-09-17T04:04:54.465Z,13.00
2022-09-17T04:07:21.210Z,13.10
2022-09-17T04:09:50.291Z,13.10
2022-09-17T04:12:17.155Z,13.10
2022-09-17T04:14:49.019Z,13.10
2022-09-17T04:17:20.399Z,13.00
2022-09-17T04:19:50.144Z,13.00
2022-09-17T04:22:16.892Z,13.00
2022-09-17T04:24:45.991Z,13.00
2022-09-17T04:27:12.733Z,13.00
2022-09-17T04:29:39.456Z,13.00
2022-09-17T04:32:08.774Z,13.00
2022-09-17T04:34:35.625Z,13.00
2022-09-17T04:37:02.383Z,13.00
2022-09-17T04:39:29.213Z,13.00
2022-09-17T04:41:56.177Z,13.00
2022-09-17T04:44:25.241Z,13.00
2022-09-17T04:46:54.735Z,13.00
2022-09-17T04:49:21.571Z,13.00
2022-09-17T04:51:50.859Z,13.00
2022-09-17T04:54:17.830Z,13.10
2022-09-17T04:56:44.601Z,13.00
2022-09-17T04:59:13.481Z,13.00
2022-09-17T05:01:43.421Z,13.00
2022-09-17T05:04:10.587Z,13.00
2022-09-17T05:06:41.982Z,13.00
2022-09-17T05:09:08.731Z,13.10
2022-09-17T05:11:35.581Z,13.10
2022-09-17T05:14:07.277Z,13.10
2022-09-17T05:16:34.072Z,13.10
2022-09-17T05:19:04.091Z,13.10
2022-09-17T05:21:33.193Z,13.10
2022-09-17T05:24:01.602Z,13.10
2022-09-17T05:26:29.500Z,13.10
2022-09-17T05:28:56.345Z,13.10
2022-09-17T05:31:25.657Z,13.10
2022-09-17T05:33:54.698Z,13.10
2022-09-17T05:36:26.203Z,13.10
2022-09-17T05:38:52.963Z,13.20
2022-09-17T05:41:24.342Z,13.20
2022-09-17T05:43:51.301Z,13.20
2022-09-17T05:46:18.066Z,13.20
2022-09-17T05:48:49.625Z,13.30
2022-09-17T05:51:16.594Z,13.30
2022-09-17T05:53:43.362Z,13.30
2022-09-17T05:56:10.207Z,13.30
2022-09-17T05:58:37.005Z,13.30
2022-09-17T06:01:04.367Z,13.30
2022-09-17T06:03:33.376Z,13.30
2022-09-17T06:06:00.746Z,13.30
2022-09-17T06:08:29.157Z,13.30
2022-09-17T06:11:00.202Z,13.30
2022-09-17T06:13:29.227Z,13.30
2022-09-17T06:15:58.327Z,13.30
2022-09-17T06:18:25.386Z,13.30
2022-09-17T06:20:56.745Z,13.30
2022-09-17T06:23:24.815Z,13.30
2022-09-17T06:26:02.390Z,13.30
2022-09-17T06:28:31.826Z,13.30
2022-09-17T06:31:08.462Z,13.30
2022-09-17T06:33:36.250Z,13.30
2022-09-17T06:36:12.472Z,13.30
2022-09-17T06:38:42.894Z,13.30
2022-09-17T06:41:09.899Z,13.30
2022-09-17T06:43:36.717Z,13.30
2022-09-17T06:46:06.254Z,13.30
2022-09-17T06:48:37.590Z,13.30
2022-09-17T06:51:10.948Z,13.30
2022-09-17T06:53:40.882Z,13.30
2022-09-17T06:56:10.489Z,13.30
2022-09-17T06:58:38.111Z,13.20
2022-09-17T07:01:05.493Z,13.20
2022-09-17T07:03:32.959Z,13.20
2022-09-17T07:06:00.298Z,13.20
2022-09-17T07:08:29.713Z,13.30
2022-09-17T07:10:59.821Z,13.30
2022-09-17T07:13:27.130Z,13.40
2022-09-17T07:16:02.298Z,13.40
2022-09-17T07:18:29.321Z,13.50
2022-09-17T07:20:57.736Z,13.50
2022-09-17T07:23:26.846Z,13.50
2022-09-17T07:25:58.654Z,13.50
2022-09-17T07:28:26.508Z,13.50
2022-09-17T07:30:53.823Z,13.50
2022-09-17T07:33:24.873Z,13.60
2022-09-17T07:35:55.888Z,13.60
2022-09-17T07:38:22.798Z,13.70
2022-09-17T07:41:15.703Z,13.70
2022-09-17T07:43:43.513Z,13.70
2022-09-17T07:46:18.516Z,13.70
2022-09-17T07:48:46.542Z,13.70
2022-09-17T07:51:22.105Z,13.70
2022-09-17T07:53:54.163Z,13.70
2022-09-17T07:56:21.631Z,13.80
2022-09-17T07:58:48.747Z,13.90
2022-09-17T08:01:16.786Z,13.90
2022-09-17T08:03:48.056Z,13.90
2022-09-17T08:06:16.274Z,13.90
2022-09-17T08:08:43.030Z,14.00
2022-09-17T08:11:23.650Z,14.00
2022-09-17T08:14:01.950Z,14.00
2022-09-17T08:16:30.496Z,14.00
2022-09-17T08:18:57.858Z,14.00
2022-09-17T08:21:26.999Z,14.10
2022-09-17T08:23:53.903Z,14.10
2022-09-17T08:26:23.002Z,14.20
2022-09-17T08:28:57.202Z,14.30
2022-09-17T08:31:26.802Z,14.40
2022-09-17T08:33:53.892Z,14.90
2022-09-17T08:36:22.695Z,15.10
2022-09-17T08:38:55.675Z,15.50
2022-09-17T08:41:32.024Z,15.50
2022-09-17T08:44:04.842Z,15.20
2022-09-17T08:46:59.710Z,15.30
2022-09-17T08:49:37.972Z,16.60
2022-09-17T08:52:24.440Z,17.30
2022-09-17T08:55:10.748Z,17.00
2022-09-17T08:58:19.267Z,16.90
2022-09-17T09:00:59.535Z,16.30
2022-09-17T09:03:32.069Z,16.20
2022-09-17T09:06:01.498Z,16.60
2022-09-17T09:08:36.881Z,16.20
2022-09-17T09:11:07.550Z,15.90
2022-09-17T09:13:41.178Z,15.70
2022-09-17T09:16:24.199Z,15.70
2022-09-17T09:19:05.152Z,15.70
2022-09-17T09:21:44.887Z,16.20
2022-09-17T09:24:24.068Z,16.80
2022-09-17T09:27:36.797Z,17.10
2022-09-17T09:30:04.182Z,17.20
2022-09-17T09:32:39.725Z,16.90
2022-09-17T09:35:31.384Z,16.70
2022-09-17T09:37:58.092Z,16.40
2022-09-17T09:40:27.992Z,16.30
2022-09-17T09:43:00.089Z,16.10
2022-09-17T09:46:04.961Z,15.90
2022-09-17T09:49:05.981Z,15.70
2022-09-17T09:52:00.037Z,15.60
2022-09-17T09:55:07.590Z,15.50
2022-09-17T09:57:39.406Z,15.30
2022-09-17T10:00:29.114Z,15.10
2022-09-17T10:03:17.142Z,15.00
2022-09-17T10:06:02.046Z,15.20
2022-09-17T10:08:31.945Z,15.50
2022-09-17T10:11:03.287Z,15.70
2022-09-17T10:13:35.709Z,15.80
2022-09-17T10:16:21.615Z,16.00
2022-09-17T10:18:53.226Z,16.10
2022-09-17T10:21:31.795Z,16.20
2022-09-17T10:23:59.860Z,16.30
2022-09-17T10:26:30.788Z,16.30
2022-09-17T10:29:06.765Z,16.50
2022-09-17T10:31:53.619Z,16.60
2022-09-17T10:34:28.908Z,16.40
2022-09-17T10:36:57.156Z,16.20
2022-09-17T10:39:26.952Z,16.10
2022-09-17T10:42:00.947Z,16.00
2022-09-17T10:44:34.930Z,15.90
2022-09-17T10:47:26.463Z,15.80
2022-09-17T10:50:01.346Z,15.70
2022-09-17T10:52:34.448Z,15.70
2022-09-17T10:55:28.506Z,15.70
2022-09-17T10:58:07.656Z,15.60
2022-09-17T11:00:59.129Z,15.60
2022-09-17T11:03:53.337Z,15.60
2022-09-17T11:06:49.214Z,15.60
2022-09-17T11:09:27.585Z,15.50
2022-09-17T11:12:16.781Z,15.30
2022-09-17T11:15:21.192Z,15.30
2022-09-17T11:18:08.720Z,15.30
2022-09-17T11:21:08.430Z,15.30
2022-09-17T11:23:50.470Z,15.50
2022-09-17T11:26:45.478Z,15.60
2022-09-17T11:29:40.296Z,15.70
2022-09-17T11:32:44.648Z,15.60
2022-09-17T11:35:46.626Z,15.50
2022-09-17T11:38:26.934Z,15.30
2022-09-17T11:41:04.691Z,15.20
2022-09-17T11:43:38.410Z,15.30
2022-09-17T11:46:21.118Z,15.30
2022-09-17T11:48:55.378Z,15.50
2022-09-17T11:51:31.794Z,15.60
2022-09-17T11:54:18.830Z,15.80
2022-09-17T11:57:18.042Z,15.80
2022-09-17T12:00:05.662Z,15.90
2022-09-17T12:02:51.958Z,15.90
2022-09-17T12:05:33.368Z,15.90
2022-09-17T12:08:15.338Z,15.80
2022-09-17T12:10:57.267Z,15.80
2022-09-17T12:13:45.599Z,15.80
2022-09-17T12:16:19.515Z,15.80
2022-09-17T12:19:11.469Z,15.70
2022-09-17T12:21:48.110Z,15.70
2022-09-17T12:24:25.023Z,15.50
2022-09-17T12:27:06.646Z,15.40
2022-09-17T12:29:52.117Z,15.30
2022-09-17T12:32:56.870Z,15.30
2022-09-17T12:36:06.051Z,15.30
2022-09-17T12:38:54.140Z,15.20
2022-09-17T12:41:40.529Z,15.20
2022-09-17T12:44:38.125Z,15.20
2022-09-17T12:47:29.173Z,15.30
2022-09-17T12:50:08.553Z,15.30
2022-09-17T12:52:52.645Z,15.30
2022-09-17T12:55:25.512Z,15.40
2022-09-17T12:58:01.096Z,15.40
2022-09-17T13:00:42.677Z,15.40
2022-09-17T13:03:27.151Z,15.40
2022-09-17T13:06:23.842Z,15.40
2022-09-17T13:08:59.571Z,15.50
2022-09-17T13:11:36.254Z,15.50
2022-09-17T13:14:31.210Z,15.60
2022-09-17T13:17:05.600Z,15.70
2022-09-17T13:19:52.751Z,15.70
2022-09-17T13:22:22.895Z,15.70
2022-09-17T13:25:09.814Z,15.70
2022-09-17T13:27:38.300Z,15.70
2022-09-17T13:30:10.995Z,15.60
2022-09-17T13:32:41.137Z,15.60
2022-09-17T13:35:14.527Z,15.70
2022-09-17T13:37:56.269Z,15.80
2022-09-17T13:40:23.223Z,15.80
2022-09-17T13:42:57.534Z,15.80
2022-09-17T13:45:25.867Z,15.80
2022-09-17T13:47:59.591Z,15.90
2022-09-17T13:50:35.772Z,15.90
2022-09-17T13:53:14.768Z,15.90
2022-09-17T13:55:55.739Z,15.90
2022-09-17T13:58:32.777Z,15.90
2022-09-17T14:01:09.855Z,16.00
2022-09-17T14:03:46.341Z,15.90
2022-09-17T14:06:18.955Z,15.90
2022-09-17T14:08:46.562Z,15.90
2022-09-17T14:11:29.854Z,16.00
2022-09-17T14:14:01.461Z,16.00
2022-09-17T14:16:37.030Z,16.20
2022-09-17T14:19:18.583Z,16.20
2022-09-17T14:21:57.448Z,16.30
2022-09-17T14:24:26.793Z,16.30
2022-09-17T14:27:32.727Z,16.20
2022-09-17T14:30:12.259Z,16.20
2022-09-17T14:32:51.375Z,16.20
2022-09-17T14:35:41.049Z,16.20
2022-09-17T14:38:35.967Z,16.00
2022-09-17T14:41:14.313Z,16.00
2022-09-17T14:44:05.397Z,15.90
2022-09-17T14:46:37.431Z,15.80
2022-09-17T14:49:25.445Z,15.80
2022-09-17T14:51:56.366Z,15.80
2022-09-17T14:54:35.777Z,15.80
2022-09-17T14:57:09.613Z,15.70
2022-09-17T14:59:36.476Z,15.60
2022-09-17T15:02:06.033Z,15.50
2022-09-17T15:04:32.870Z,15.40
2022-09-17T15:07:12.568Z,15.40
2022-09-17T15:09:39.442Z,15.30
2022-09-17T15:12:09.592Z,15.30
2022-09-17T15:14:40.011Z,15.30
2022-09-17T15:17:19.159Z,15.30
2022-09-17T15:19:50.229Z,15.20
2022-09-17T15:22:20.896Z,15.20
2022-09-17T15:24:50.752Z,15.10
2022-09-17T15:27:32.152Z,15.00
2022-09-17T15:30:20.865Z,15.00
2022-09-17T15:32:59.162Z,14.90
2022-09-17T15:35:33.754Z,14.90
2022-09-17T15:38:22.927Z,14.90
2022-09-17T15:40:51.745Z,14.80
2022-09-17T15:43:24.666Z,14.80
2022-09-17T15:45:54.586Z,15.20
2022-09-17T15:48:27.517Z,15.00
2022-09-17T15:51:02.351Z,15.30
2022-09-17T15:53:31.701Z,15.40
2022-09-17T15:56:03.664Z,15.20
2022-09-17T15:58:36.223Z,15.00
2022-09-17T16:01:18.789Z,14.80
2022-09-17T16:03:45.721Z,14.70
2022-09-17T16:06:18.788Z,14.50
2022-09-17T16:09:00.629Z,14.40
2022-09-17T16:11:32.100Z,14.30
2022-09-17T16:14:01.052Z,14.20
2022-09-17T16:16:36.982Z,14.10
2022-09-17T16:19:05.852Z,14.10
2022-09-17T16:21:32.654Z,14.10
2022-09-17T16:24:01.649Z,14.00
2022-09-17T16:26:34.921Z,14.00
2022-09-17T16:29:09.366Z,14.00
2022-09-17T16:31:36.170Z,14.00
2022-09-17T16:34:05.574Z,14.00
2022-09-17T16:36:36.814Z,13.90
2022-09-17T16:39:05.070Z,13.90
2022-09-17T16:41:31.883Z,13.90
2022-09-17T16:43:58.770Z,13.90
2022-09-17T16:46:25.878Z,13.80
2022-09-17T16:48:55.298Z,13.70
2022-09-17T16:51:22.170Z,13.70
2022-09-17T16:53:50.266Z,13.70
2022-09-17T16:56:20.418Z,13.70
2022-09-17T16:58:47.608Z,13.70
2022-09-17T17:01:16.338Z,13.70
2022-09-17T17:03:45.433Z,13.70
2022-09-17T17:06:19.258Z,13.70
2022-09-17T17:08:49.401Z,13.70
2022-09-17T17:11:16.402Z,13.60
2022-09-17T17:13:45.754Z,13.60
2022-09-17T17:16:14.606Z,13.50
2022-09-17T17:18:47.239Z,13.50
2022-09-17T17:21:15.098Z,13.50
2022-09-17T17:23:44.501Z,13.50
2022-09-17T17:26:11.359Z,13.40
2022-09-17T17:28:38.331Z,13.40
2022-09-17T17:31:07.919Z,13.40
2022-09-17T17:33:35.478Z,13.40
2022-09-17T17:36:08.196Z,13.30
2022-09-17T17:38:38.544Z,13.30
2022-09-17T17:41:15.362Z,13.30
2022-09-17T17:43:42.286Z,13.30
2022-09-17T17:46:11.113Z,13.20
2022-09-17T17:48:38.530Z,13.20
2022-09-17T17:51:11.139Z,13.20
2022-09-17T17:53:41.630Z,13.20
2022-09-17T17:56:09.843Z,13.10
2022-09-17T17:58:37.548Z,13.10
2022-09-17T18:01:21.171Z,13.00
2022-09-17T18:03:48.272Z,12.90
2022-09-17T18:06:15.666Z,12.90
2022-09-17T18:08:45.190Z,12.90
2022-09-17T18:11:12.262Z,12.80
2022-09-17T18:13:41.236Z,12.80
2022-09-17T18:16:10.836Z,12.80
2022-09-17T18:18:45.654Z,12.80
2022-09-17T18:21:22.928Z,12.80
2022-09-17T18:23:50.677Z,12.80
2022-09-17T18:26:20.314Z,12.80
2022-09-17T18:28:47.864Z,12.80
2022-09-17T18:31:20.510Z,12.80
2022-09-17T18:33:57.761Z,12.90
2022-09-17T18:36:27.130Z,12.80
2022-09-17T18:39:16.693Z,12.80
2022-09-17T18:41:50.737Z,12.80
2022-09-17T18:44:21.939Z,12.70
2022-09-17T18:46:51.555Z,12.70
2022-09-17T18:49:21.854Z,12.70
2022-09-17T18:51:49.223Z,12.70
2022-09-17T18:54:16.651Z,12.70
2022-09-17T18:56:46.298Z,12.70
2022-09-17T18:59:14.431Z,12.70
2022-09-17T19:01:41.496Z,12.60
2022-09-17T19:04:08.603Z,12.60
2022-09-17T19:06:35.925Z,12.50
2022-09-17T19:09:06.223Z,12.50
2022-09-17T19:11:36.212Z,12.50
2022-09-17T19:14:03.718Z,12.50
2022-09-17T19:16:33.823Z,12.50
2022-09-17T19:19:00.797Z,12.50
2022-09-17T19:21:29.978Z,12.50
2022-09-17T19:23:57.033Z,12.50
2022-09-17T19:26:27.581Z,12.40
2022-09-17T19:28:56.191Z,12.40
2022-09-17T19:31:25.730Z,12.50
2022-09-17T19:33:53.079Z,12.50
2022-09-17T19:36:20.969Z,12.50
2022-09-17T19:38:50.336Z,12.50
2022-09-17T19:41:19.861Z,12.50
2022-09-17T19:43:50.060Z,12.50
2022-09-17T19:46:21.704Z,12.50
2022-09-17T19:48:58.700Z,12.50
2022-09-17T19:51:29.002Z,12.50
2022-09-17T19:53:56.652Z,12.50
2022-09-17T19:56:26.564Z,12.50
2022-09-17T19:58:54.645Z,12.50
2022-09-17T20:01:23.783Z,12.50
2022-09-17T20:03:53.135Z,12.50
2022-09-17T20:06:20.877Z,12.60
2022-09-17T20:08:54.820Z,12.60
2022-09-17T20:11:24.148Z,12.60
2022-09-17T20:13:57.365Z,12.50
2022-09-17T20:16:26.956Z,12.60
2022-09-17T20:18:54.238Z,12.60
2022-09-17T20:21:24.232Z,12.60
2022-09-17T20:23:51.784Z,12.60
2022-09-17T20:26:18.832Z,12.60
2022-09-17T20:28:46.992Z,12.60
2022-09-17T20:31:18.826Z,12.60
2022-09-17T20:33:46.556Z,12.60
2022-09-17T20:36:15.935Z,12.60
2022-09-17T20:41:34.437Z,12.60
2022-09-17T20:44:07.149Z,12.60
2022-09-17T20:46:34.295Z,12.60
2022-09-17T20:49:01.225Z,12.60
2022-09-17T20:51:33.179Z,12.50
2022-09-17T20:54:02.865Z,12.60
2022-09-17T20:56:34.151Z,12.60
2022-09-17T20:59:09.506Z,12.60
2022-09-17T21:01:37.652Z,12.60
2022-09-17T21:04:07.428Z,12.60
2022-09-17T21:06:37.346Z,12.60
2022-09-17T21:09:06.093Z,12.60
2022-09-17T21:11:33.982Z,12.60
2022-09-17T21:14:03.878Z,12.60
2022-09-17T21:16:31.337Z,12.50
2022-09-17T21:19:05.057Z,12.50
2022-09-17T21:21:34.497Z,12.50
2022-09-17T21:24:05.634Z,12.50
2022-09-17T21:26:34.432Z,12.50
2022-09-17T21:29:01.511Z,12.40
2022-09-17T21:31:33.476Z,12.50
2022-09-17T21:34:06.462Z,12.50
2022-09-17T21:36:36.060Z,12.50
2022-09-17T21:39:21.163Z,12.50
2022-09-17T21:41:48.565Z,12.50
2022-09-17T21:44:17.967Z,12.50
2022-09-17T21:46:44.739Z,12.50
2022-09-17T21:49:16.339Z,12.50
2022-09-17T21:51:43.402Z,12.50
2022-09-17T21:54:15.793Z,12.50
2022-09-17T21:56:43.559Z,12.50
2022-09-17T21:59:13.104Z,12.40
2022-09-17T22:01:46.935Z,12.50
2022-09-17T22:04:16.654Z,12.50
2022-09-17T22:06:44.665Z,12.40
2022-09-17T22:09:25.132Z,12.40
2022-09-17T22:11:55.355Z,12.40
2022-09-17T22:14:24.632Z,12.40
2022-09-17T22:16:56.922Z,12.40
2022-09-17T22:19:26.764Z,12.40
2022-09-17T22:21:55.247Z,12.50
2022-09-17T22:24:23.177Z,12.40
2022-09-17T22:26:57.866Z,12.40
2022-09-17T22:29:26.418Z,12.40
2022-09-17T22:31:53.285Z,12.40
2022-09-17T22:34:21.942Z,12.40
2022-09-17T22:36:51.405Z,12.40
2022-09-17T22:39:24.034Z,12.40
2022-09-17T22:41:50.992Z,12.40
2022-09-17T22:44:19.971Z,12.40
2022-09-17T22:46:50.053Z,12.40
2022-09-17T22:49:17.718Z,12.40
2022-09-17T22:51:47.274Z,12.40
2022-09-17T22:54:16.032Z,12.40
2022-09-17T22:56:46.848Z,12.40
2022-09-17T22:59:19.390Z,12.50
2022-09-17T23:01:46.950Z,12.50
2022-09-17T23:04:13.980Z,12.50
2022-09-17T23:06:43.229Z,12.50
2022-09-17T23:09:13.807Z,12.50
2022-09-17T23:11:40.759Z,12.50
2022-09-17T23:14:12.244Z,12.50
2022-09-17T23:16:44.679Z,12.50
2022-09-17T23:19:15.582Z,12.50
2022-09-17T23:21:43.098Z,12.50
2022-09-17T23:24:13.792Z,12.50
2022-09-17T23:26:40.648Z,12.60
2022-09-17T23:29:09.858Z,12.60
2022-09-17T23:31:36.852Z,12.60
2022-09-17T23:34:05.412Z,12.60
2022-09-17T23:36:39.894Z,12.60
2022-09-17T23:39:09.016Z,12.60
2022-09-17T23:41:43.156Z,12.60
2022-09-17T23:44:14.800Z,12.60
2022-09-17T23:46:43.228Z,12.60
2022-09-17T23:49:11.415Z,12.60
2022-09-17T23:51:38.731Z,12.60
2022-09-17T23:54:07.076Z,12.60
2022-09-17T23:56:41.640Z,12.60
2022-09-17T23:59:10.702Z,12.60
